sensor_id;sensor_type;location;lat;lon;timestamp;pressure;altitude;pressure_sealevel;temperature;humidity
68891;BME280;55932;48.702;8.884;2023-11-22T00:00:32;96400;;;6.4;76.5
68891;BME280;55932;48.702;8.884;2023-11-22T00:03:01;96390;;;6.4;76.5
68891;BME280;55932;48.702;8.884;2023-11-22T00:07:48;96380;;;6.4;76.5
68891;BME280;55932;48.702;8.884;2023-11-22T00:10:32;96380;;;6.5;76.5
68891;BME280;55932;48.702;8.884;2023-11-22T00:15:32;96380;;;6.5;76.5
68891;BME280;55932;48.702;8.884;2023-11-22T00:17:49;96390;;;6.4;76.5
68891;BME280;55932;48.702;8.884;2023-11-22T00:22:49;96390;;;6.5;76.5
68891;BME280;55932;48.702;8.884;2023-11-22T00:25:20;96390;;;6.5;76.5
68891;BME280;55932;48.702;8.884;2023-11-22T00:27:50;96410;;;6.4;76
68891;BME280;55932;48.702;8.884;2023-11-22T00:30:20;96420;;;6.1;76.5
68891;BME280;55932;48.702;8.884;2023-11-22T00:32:50;96410;;;5.7;76.5
68891;BME280;55932;48.702;8.884;2023-11-22T00:35:27;96430;;;5.3;76.5
68891;BME280;55932;48.702;8.884;2023-11-22T00:40:34;96440;;;5;77
68891;BME280;55932;48.702;8.884;2023-11-22T00:42:51;96430;;;4.9;77
68891;BME280;55932;48.702;8.884;2023-11-22T00:45:21;96440;;;4.9;77
68891;BME280;55932;48.702;8.884;2023-11-22T00:47:51;96440;;;4.8;77
68891;BME280;55932;48.702;8.884;2023-11-22T00:50:35;96440;;;4.7;77
68891;BME280;55932;48.702;8.884;2023-11-22T00:53:05;96440;;;4.6;77
68891;BME280;55932;48.702;8.884;2023-11-22T00:57:52;96460;;;4.5;77
68891;BME280;55932;48.702;8.884;2023-11-22T01:00:43;96460;;;4.4;77
68891;BME280;55932;48.702;8.884;2023-11-22T01:07:53;96480;;;4.2;77
68891;BME280;55932;48.702;8.884;2023-11-22T01:12:54;96480;;;4.2;77
68891;BME280;55932;48.702;8.884;2023-11-22T01:15:30;96480;;;4.2;77
68891;BME280;55932;48.702;8.884;2023-11-22T01:20:38;96490;;;4.2;77
68891;BME280;55932;48.702;8.884;2023-11-22T01:23:01;96490;;;4.1;77
68891;BME280;55932;48.702;8.884;2023-11-22T01:25:37;96500;;;4.1;77
68891;BME280;55932;48.702;8.884;2023-11-22T01:30:37;96500;;;3.9;77
68891;BME280;55932;48.702;8.884;2023-11-22T01:32:55;96510;;;3.9;77
68891;BME280;55932;48.702;8.884;2023-11-22T01:35:24;96510;;;3.8;77
68891;BME280;55932;48.702;8.884;2023-11-22T01:37:55;96510;;;3.7;77
68891;BME280;55932;48.702;8.884;2023-11-22T01:45:26;96520;;;3.6;77
68891;BME280;55932;48.702;8.884;2023-11-22T01:48:03;96530;;;3.6;77.5
68891;BME280;55932;48.702;8.884;2023-11-22T01:55:28;96530;;;3.7;77
68891;BME280;55932;48.702;8.884;2023-11-22T01:57:57;96540;;;3.7;77
68891;BME280;55932;48.702;8.884;2023-11-22T02:02:57;96540;;;3.6;77
68891;BME280;55932;48.702;8.884;2023-11-22T02:05:41;96540;;;3.6;77
68891;BME280;55932;48.702;8.884;2023-11-22T02:08:04;96540;;;3.6;77
68891;BME280;55932;48.702;8.884;2023-11-22T02:15:35;96550;;;3.5;77
68891;BME280;55932;48.702;8.884;2023-11-22T02:18:11;96550;;;3.5;77
68891;BME280;55932;48.702;8.884;2023-11-22T02:20:30;96540;;;3.4;77
68891;BME280;55932;48.702;8.884;2023-11-22T02:23:07;96560;;;3.4;77
68891;BME280;55932;48.702;8.884;2023-11-22T02:25:29;96560;;;3.4;77
68891;BME280;55932;48.702;8.884;2023-11-22T02:28:05;96560;;;3.4;77
68891;BME280;55932;48.702;8.884;2023-11-22T02:30:42;96560;;;3.4;77
68891;BME280;55932;48.702;8.884;2023-11-22T02:32:59;96570;;;3.3;77
68891;BME280;55932;48.702;8.884;2023-11-22T02:35:29;96570;;;3.2;77
68891;BME280;55932;48.702;8.884;2023-11-22T02:38:06;96580;;;3;77
68891;BME280;55932;48.702;8.884;2023-11-22T02:40:43;96590;;;2.9;77
68891;BME280;55932;48.702;8.884;2023-11-22T02:45:30;96590;;;2.7;77
68891;BME280;55932;48.702;8.884;2023-11-22T02:48:00;96600;;;2.6;77
68891;BME280;55932;48.702;8.884;2023-11-22T02:50:31;96590;;;2.5;77.5
68891;BME280;55932;48.702;8.884;2023-11-22T02:53:01;96590;;;2.4;77.5
68891;BME280;55932;48.702;8.884;2023-11-22T02:55:31;96600;;;2.3;77.5
68891;BME280;55932;48.702;8.884;2023-11-22T02:58:01;96610;;;2.1;77.5
68891;BME280;55932;48.702;8.884;2023-11-22T03:03:08;96610;;;1.9;77.5
68891;BME280;55932;48.702;8.884;2023-11-22T03:05:45;96610;;;1.9;78
68891;BME280;55932;48.702;8.884;2023-11-22T03:08:08;96610;;;1.9;77.5
68891;BME280;55932;48.702;8.884;2023-11-22T03:15:32;96630;;;1.8;78
68891;BME280;55932;48.702;8.884;2023-11-22T03:18:09;96630;;;1.8;78
68891;BME280;55932;48.702;8.884;2023-11-22T03:20:39;96630;;;1.7;78
68891;BME280;55932;48.702;8.884;2023-11-22T03:23:09;96630;;;1.7;78
68891;BME280;55932;48.702;8.884;2023-11-22T03:25:33;96640;;;1.6;78.5
68891;BME280;55932;48.702;8.884;2023-11-22T03:28:27;96640;;;1.6;78.5
68891;BME280;55932;48.702;8.884;2023-11-22T03:30:33;96640;;;1.6;78.5
68891;BME280;55932;48.702;8.884;2023-11-22T03:35:40;96640;;;1.7;78.5
68891;BME280;55932;48.702;8.884;2023-11-22T03:38:17;96650;;;1.7;78
68891;BME280;55932;48.702;8.884;2023-11-22T03:45:34;96660;;;1.7;77.5
68891;BME280;55932;48.702;8.884;2023-11-22T03:48:04;96670;;;1.6;78
68891;BME280;55932;48.702;8.884;2023-11-22T03:50:48;96670;;;1.6;78
68891;BME280;55932;48.702;8.884;2023-11-22T03:55:39;96680;;;1.6;78
68891;BME280;55932;48.702;8.884;2023-11-22T03:58:12;96680;;;1.6;78
68891;BME280;55932;48.702;8.884;2023-11-22T04:00:51;96680;;;1.7;78
68891;BME280;55932;48.702;8.884;2023-11-22T04:05:35;96690;;;1.6;78.5
68891;BME280;55932;48.702;8.884;2023-11-22T04:08:12;96700;;;1.7;78.5
68891;BME280;55932;48.702;8.884;2023-11-22T04:10:49;96690;;;1.7;78.5
68891;BME280;55932;48.702;8.884;2023-11-22T04:13:13;96700;;;1.7;78.5
68891;BME280;55932;48.702;8.884;2023-11-22T04:15:43;96690;;;1.7;78.5
68891;BME280;55932;48.702;8.884;2023-11-22T04:18:19;96690;;;1.8;78.5
68891;BME280;55932;48.702;8.884;2023-11-22T04:20:37;96690;;;1.8;78.5
68891;BME280;55932;48.702;8.884;2023-11-22T04:23:07;96690;;;1.8;78.5
68891;BME280;55932;48.702;8.884;2023-11-22T04:25:37;96690;;;1.8;78.5
68891;BME280;55932;48.702;8.884;2023-11-22T04:28:15;96690;;;1.8;78.5
68891;BME280;55932;48.702;8.884;2023-11-22T04:30:37;96700;;;1.8;78
68891;BME280;55932;48.702;8.884;2023-11-22T04:35:37;96700;;;1.8;78.5
68891;BME280;55932;48.702;8.884;2023-11-22T04:38:14;96720;;;1.8;78.5
68891;BME280;55932;48.702;8.884;2023-11-22T04:45:45;96720;;;1.8;78.5
68891;BME280;55932;48.702;8.884;2023-11-22T04:48:21;96730;;;1.8;78.5
68891;BME280;55932;48.702;8.884;2023-11-22T04:50:52;96740;;;1.8;78.5
68891;BME280;55932;48.702;8.884;2023-11-22T05:05:40;96740;;;1.6;78.5
68891;BME280;55932;48.702;8.884;2023-11-22T05:08:16;96740;;;1.6;78.5
68891;BME280;55932;48.702;8.884;2023-11-22T05:10:54;96750;;;1.6;78.5
68891;BME280;55932;48.702;8.884;2023-11-22T05:15:53;96770;;;1.5;78.5
68891;BME280;55932;48.702;8.884;2023-11-22T05:18:24;96760;;;1.5;78.5
68891;BME280;55932;48.702;8.884;2023-11-22T05:20:41;96770;;;1.5;78.5
68891;BME280;55932;48.702;8.884;2023-11-22T05:23:11;96780;;;1.5;78.5
68891;BME280;55932;48.702;8.884;2023-11-22T05:25:41;96780;;;1.5;78.5
68891;BME280;55932;48.702;8.884;2023-11-22T05:28:18;96780;;;1.5;78.5
68891;BME280;55932;48.702;8.884;2023-11-22T05:33:25;96780;;;1.5;78.5
68891;BME280;55932;48.702;8.884;2023-11-22T05:35:42;96790;;;1.5;78.5
68891;BME280;55932;48.702;8.884;2023-11-22T05:38:25;96790;;;1.4;78.5
68891;BME280;55932;48.702;8.884;2023-11-22T05:43:12;96790;;;1.4;78.5
68891;BME280;55932;48.702;8.884;2023-11-22T05:45:43;96780;;;1.4;78.5
68891;BME280;55932;48.702;8.884;2023-11-22T05:48:19;96790;;;1.4;78.5
68891;BME280;55932;48.702;8.884;2023-11-22T05:50:43;96790;;;1.4;78.5
68891;BME280;55932;48.702;8.884;2023-11-22T05:53:20;96790;;;1.4;79
68891;BME280;55932;48.702;8.884;2023-11-22T05:55:43;96800;;;1.4;79
68891;BME280;55932;48.702;8.884;2023-11-22T05:58:20;96800;;;1.4;79
68891;BME280;55932;48.702;8.884;2023-11-22T06:00:56;96800;;;1.4;78.5
68891;BME280;55932;48.702;8.884;2023-11-22T06:05:57;96820;;;1.4;78.5
68891;BME280;55932;48.702;8.884;2023-11-22T06:08:15;96820;;;1.4;78.5
68891;BME280;55932;48.702;8.884;2023-11-22T06:13:15;96830;;;1.3;78.5
68891;BME280;55932;48.702;8.884;2023-11-22T06:18:15;96840;;;1.2;78.5
68891;BME280;55932;48.702;8.884;2023-11-22T06:20:46;96850;;;1.2;78.5
68891;BME280;55932;48.702;8.884;2023-11-22T06:23:16;96840;;;1.2;78.5
68891;BME280;55932;48.702;8.884;2023-11-22T06:25:45;96840;;;1.3;78.5
68891;BME280;55932;48.702;8.884;2023-11-22T06:33:17;96860;;;1.3;78.5
68891;BME280;55932;48.702;8.884;2023-11-22T06:38:16;96870;;;1.3;78.5
68891;BME280;55932;48.702;8.884;2023-11-22T06:40:47;96870;;;1.3;78.5
68891;BME280;55932;48.702;8.884;2023-11-22T06:43:17;96870;;;1.3;78.5
68891;BME280;55932;48.702;8.884;2023-11-22T06:45:54;96860;;;1.3;78.5
68891;BME280;55932;48.702;8.884;2023-11-22T06:48:17;96860;;;1.3;78.5
68891;BME280;55932;48.702;8.884;2023-11-22T06:50:47;96860;;;1.3;78.5
68891;BME280;55932;48.702;8.884;2023-11-22T06:53:24;96870;;;1.3;78.5
68891;BME280;55932;48.702;8.884;2023-11-22T06:56:01;96880;;;1.3;78.5
68891;BME280;55932;48.702;8.884;2023-11-22T07:00:48;96880;;;1.3;78.5
68891;BME280;55932;48.702;8.884;2023-11-22T07:03:21;96880;;;1.3;78.5
68891;BME280;55932;48.702;8.884;2023-11-22T07:06:02;96880;;;1.3;78.5
68891;BME280;55932;48.702;8.884;2023-11-22T07:08:18;96890;;;1.3;78.5
68891;BME280;55932;48.702;8.884;2023-11-22T07:10:51;96890;;;1.4;78.5
68891;BME280;55932;48.702;8.884;2023-11-22T07:13:19;96890;;;1.4;78.5
68891;BME280;55932;48.702;8.884;2023-11-22T07:16:02;96900;;;1.4;78.5
68891;BME280;55932;48.702;8.884;2023-11-22T07:18:26;96890;;;1.4;78.5
68891;BME280;55932;48.702;8.884;2023-11-22T07:20:49;96910;;;1.4;78
68891;BME280;55932;48.702;8.884;2023-11-22T07:23:19;96910;;;1.4;78.5
68891;BME280;55932;48.702;8.884;2023-11-22T07:28:20;96910;;;1.5;78.5
68891;BME280;55932;48.702;8.884;2023-11-22T07:30:50;96910;;;1.5;78.5
68891;BME280;55932;48.702;8.884;2023-11-22T07:33:20;96920;;;1.5;78.5
68891;BME280;55932;48.702;8.884;2023-11-22T07:35:50;96930;;;1.5;78.5
68891;BME280;55932;48.702;8.884;2023-11-22T07:38:20;96940;;;1.5;78.5
68891;BME280;55932;48.702;8.884;2023-11-22T07:40:51;96940;;;1.5;78.5
68891;BME280;55932;48.702;8.884;2023-11-22T07:45:51;96950;;;1.5;78.5
68891;BME280;55932;48.702;8.884;2023-11-22T07:50:47;96950;;;1.5;78.5
68891;BME280;55932;48.702;8.884;2023-11-22T07:55:48;96950;;;1.5;78
68891;BME280;55932;48.702;8.884;2023-11-22T08:00:50;96950;;;1.4;78.5
68891;BME280;55932;48.702;8.884;2023-11-22T08:03:21;96940;;;1.4;78.5
68891;BME280;55932;48.702;8.884;2023-11-22T08:05:52;96950;;;1.4;78.5
68891;BME280;55932;48.702;8.884;2023-11-22T08:08:23;96960;;;1.5;78.5
68891;BME280;55932;48.702;8.884;2023-11-22T08:10:54;96960;;;1.4;78.5
68891;BME280;55932;48.702;8.884;2023-11-22T08:13:25;96960;;;1.4;78.5
68891;BME280;55932;48.702;8.884;2023-11-22T08:15:59;96960;;;1.4;78.5
68891;BME280;55932;48.702;8.884;2023-11-22T08:21:05;96960;;;1.2;78.5
68891;BME280;55932;48.702;8.884;2023-11-22T08:23:29;96970;;;1.1;78.5
68891;BME280;55932;48.702;8.884;2023-11-22T08:26:00;96970;;;1.1;78.5
68891;BME280;55932;48.702;8.884;2023-11-22T08:28:31;96970;;;1.1;78.5
68891;BME280;55932;48.702;8.884;2023-11-22T08:31:02;96970;;;1.2;78.5
68891;BME280;55932;48.702;8.884;2023-11-22T08:33:33;96960;;;1.1;78.5
68891;BME280;55932;48.702;8.884;2023-11-22T08:38:35;96960;;;1.3;78.5
68891;BME280;55932;48.702;8.884;2023-11-22T08:41:06;96970;;;1.4;78.5
68891;BME280;55932;48.702;8.884;2023-11-22T08:43:36;96960;;;1.5;78
68891;BME280;55932;48.702;8.884;2023-11-22T08:46:08;96960;;;1.5;78.5
68891;BME280;55932;48.702;8.884;2023-11-22T08:48:45;96960;;;1.7;78
68891;BME280;55932;48.702;8.884;2023-11-22T08:53:41;96970;;;1.7;78
68891;BME280;55932;48.702;8.884;2023-11-22T08:56:12;96970;;;1.8;78
68891;BME280;55932;48.702;8.884;2023-11-22T08:58:42;96980;;;1.8;78
68891;BME280;55932;48.702;8.884;2023-11-22T09:01:13;96970;;;2;77.5
68891;BME280;55932;48.702;8.884;2023-11-22T09:06:21;96970;;;1.9;77.5
68891;BME280;55932;48.702;8.884;2023-11-22T09:08:51;96970;;;1.9;78
68891;BME280;55932;48.702;8.884;2023-11-22T09:11:21;96960;;;2;78
68891;BME280;55932;48.702;8.884;2023-11-22T09:13:52;96960;;;2.1;78
68891;BME280;55932;48.702;8.884;2023-11-22T09:16:22;96960;;;2.2;78
68891;BME280;55932;48.702;8.884;2023-11-22T09:18:58;96970;;;2.2;77.5
68891;BME280;55932;48.702;8.884;2023-11-22T09:21:29;96960;;;2.2;77.5
68891;BME280;55932;48.702;8.884;2023-11-22T09:23:52;96960;;;2;77
68891;BME280;55932;48.702;8.884;2023-11-22T09:26:23;96960;;;2;77
68891;BME280;55932;48.702;8.884;2023-11-22T09:28:53;96960;;;2;77.5
68891;BME280;55932;48.702;8.884;2023-11-22T09:31:23;96960;;;1.9;77.5
68891;BME280;55932;48.702;8.884;2023-11-22T09:33:53;96960;;;2;77
68891;BME280;55932;48.702;8.884;2023-11-22T09:36:23;96960;;;2.1;77
68891;BME280;55932;48.702;8.884;2023-11-22T09:38:53;96960;;;2;77
68891;BME280;55932;48.702;8.884;2023-11-22T09:41:23;96970;;;2.1;77
68891;BME280;55932;48.702;8.884;2023-11-22T09:44:00;96980;;;2.2;77
68891;BME280;55932;48.702;8.884;2023-11-22T09:46:30;96980;;;2.3;77
68891;BME280;55932;48.702;8.884;2023-11-22T09:48:54;96980;;;2.4;77
68891;BME280;55932;48.702;8.884;2023-11-22T09:51:26;96980;;;2.4;76.5
68891;BME280;55932;48.702;8.884;2023-11-22T09:53:52;96990;;;2.3;77
68891;BME280;55932;48.702;8.884;2023-11-22T09:56:20;97000;;;2.4;77
68891;BME280;55932;48.702;8.884;2023-11-22T09:58:52;97000;;;2.4;77
68891;BME280;55932;48.702;8.884;2023-11-22T10:01:22;97000;;;2.3;76.5
68891;BME280;55932;48.702;8.884;2023-11-22T10:03:59;97000;;;2.2;77
68891;BME280;55932;48.702;8.884;2023-11-22T10:06:29;97010;;;2.3;77
68891;BME280;55932;48.702;8.884;2023-11-22T10:16:25;97010;;;2.6;76.5
68891;BME280;55932;48.702;8.884;2023-11-22T10:18:56;97010;;;2.4;76.5
68891;BME280;55932;48.702;8.884;2023-11-22T10:21:28;97020;;;2.3;77
68891;BME280;55932;48.702;8.884;2023-11-22T10:24:01;97020;;;2.3;77
68891;BME280;55932;48.702;8.884;2023-11-22T10:26:29;97020;;;2.3;77
68891;BME280;55932;48.702;8.884;2023-11-22T10:28:59;97010;;;2.3;77
68891;BME280;55932;48.702;8.884;2023-11-22T10:31:31;97000;;;2.3;77
68891;BME280;55932;48.702;8.884;2023-11-22T10:34:08;97000;;;2.2;77
68891;BME280;55932;48.702;8.884;2023-11-22T10:36:39;97010;;;2.2;76.5
68891;BME280;55932;48.702;8.884;2023-11-22T10:39:03;97020;;;2.1;77
68891;BME280;55932;48.702;8.884;2023-11-22T10:41:34;97020;;;2.1;77.5
68891;BME280;55932;48.702;8.884;2023-11-22T10:44:06;97010;;;2.3;77
68891;BME280;55932;48.702;8.884;2023-11-22T10:46:36;97000;;;2.3;77
68891;BME280;55932;48.702;8.884;2023-11-22T10:49:07;97000;;;2.4;77
68891;BME280;55932;48.702;8.884;2023-11-22T10:54:09;97010;;;2.4;76.5
68891;BME280;55932;48.702;8.884;2023-11-22T10:56:40;97010;;;2.4;76.5
68891;BME280;55932;48.702;8.884;2023-11-22T10:59:13;97020;;;2.4;76.5
68891;BME280;55932;48.702;8.884;2023-11-22T11:01:48;97030;;;2.5;77
68891;BME280;55932;48.702;8.884;2023-11-22T11:04:24;97040;;;2.5;76.5
68891;BME280;55932;48.702;8.884;2023-11-22T11:09:15;97050;;;2.2;77
68891;BME280;55932;48.702;8.884;2023-11-22T11:11:46;97050;;;2.2;77
68891;BME280;55932;48.702;8.884;2023-11-22T11:14:17;97050;;;2.1;77.5
68891;BME280;55932;48.702;8.884;2023-11-22T11:16:48;97040;;;2.1;77
68891;BME280;55932;48.702;8.884;2023-11-22T11:19:19;97050;;;2;76.5
68891;BME280;55932;48.702;8.884;2023-11-22T11:21:50;97060;;;1.8;77.5
68891;BME280;55932;48.702;8.884;2023-11-22T11:24:21;97060;;;1.8;77.5
68891;BME280;55932;48.702;8.884;2023-11-22T11:26:51;97050;;;2;77
68891;BME280;55932;48.702;8.884;2023-11-22T11:29:37;97060;;;2;77.5
68891;BME280;55932;48.702;8.884;2023-11-22T11:32:02;97060;;;2;77.5
68891;BME280;55932;48.702;8.884;2023-11-22T11:36:56;97060;;;2.1;77.5
68891;BME280;55932;48.702;8.884;2023-11-22T11:39:46;97050;;;2.2;77
68891;BME280;55932;48.702;8.884;2023-11-22T11:42:10;97050;;;2.2;76.5
68891;BME280;55932;48.702;8.884;2023-11-22T11:45:12;97050;;;2.1;77
68891;BME280;55932;48.702;8.884;2023-11-22T11:47:08;97060;;;2.1;76.5
68891;BME280;55932;48.702;8.884;2023-11-22T11:49:48;97060;;;2;76.5
68891;BME280;55932;48.702;8.884;2023-11-22T11:52:03;97070;;;1.9;77
68891;BME280;55932;48.702;8.884;2023-11-22T11:54:34;97080;;;2;77
68891;BME280;55932;48.702;8.884;2023-11-22T12:01:53;97090;;;2;76.5
68891;BME280;55932;48.702;8.884;2023-11-22T12:04:24;97080;;;2;77
68891;BME280;55932;48.702;8.884;2023-11-22T12:06:55;97090;;;2;77.5
68891;BME280;55932;48.702;8.884;2023-11-22T12:11:59;97090;;;2.4;77.5
68891;BME280;55932;48.702;8.884;2023-11-22T12:14:27;97100;;;2.3;77.5
68891;BME280;55932;48.702;8.884;2023-11-22T12:16:58;97120;;;2.3;77.5
68891;BME280;55932;48.702;8.884;2023-11-22T12:19:28;97110;;;2.1;78
68891;BME280;55932;48.702;8.884;2023-11-22T12:27:01;97130;;;2;78
68891;BME280;55932;48.702;8.884;2023-11-22T12:32:02;97120;;;2.2;78
68891;BME280;55932;48.702;8.884;2023-11-22T12:37:04;97130;;;2.1;77.5
68891;BME280;55932;48.702;8.884;2023-11-22T12:42:07;97130;;;2.1;78
68891;BME280;55932;48.702;8.884;2023-11-22T12:44:46;97120;;;2;77.5
68891;BME280;55932;48.702;8.884;2023-11-22T12:47:07;97120;;;1.9;78
68891;BME280;55932;48.702;8.884;2023-11-22T12:54:39;97110;;;1.9;78
68891;BME280;55932;48.702;8.884;2023-11-22T12:57:10;97110;;;1.9;78
68891;BME280;55932;48.702;8.884;2023-11-22T13:02:12;97110;;;2;78
68891;BME280;55932;48.702;8.884;2023-11-22T13:04:55;97110;;;2.1;78
68891;BME280;55932;48.702;8.884;2023-11-22T13:07:26;97110;;;2;78
68891;BME280;55932;48.702;8.884;2023-11-22T13:09:56;97110;;;2;78
68891;BME280;55932;48.702;8.884;2023-11-22T13:12:26;97110;;;2;77.5
68891;BME280;55932;48.702;8.884;2023-11-22T13:14:50;97100;;;1.9;78
68891;BME280;55932;48.702;8.884;2023-11-22T13:17:28;97110;;;1.9;78
68891;BME280;55932;48.702;8.884;2023-11-22T13:19:52;97110;;;1.8;77.5
68891;BME280;55932;48.702;8.884;2023-11-22T13:22:30;97110;;;1.8;78
68891;BME280;55932;48.702;8.884;2023-11-22T13:29:56;97110;;;1.8;78
68891;BME280;55932;48.702;8.884;2023-11-22T13:32:34;97110;;;1.8;78
68891;BME280;55932;48.702;8.884;2023-11-22T13:35:05;97120;;;1.8;77.5
68891;BME280;55932;48.702;8.884;2023-11-22T13:37:35;97130;;;1.9;77
68891;BME280;55932;48.702;8.884;2023-11-22T13:40:06;97130;;;1.9;77
68891;BME280;55932;48.702;8.884;2023-11-22T13:42:43;97140;;;1.9;77
68891;BME280;55932;48.702;8.884;2023-11-22T13:45:13;97130;;;1.9;77
68891;BME280;55932;48.702;8.884;2023-11-22T13:47:36;97130;;;1.7;77.5
68891;BME280;55932;48.702;8.884;2023-11-22T13:50:14;97110;;;1.8;78
68891;BME280;55932;48.702;8.884;2023-11-22T13:52:43;97110;;;1.9;78
68891;BME280;55932;48.702;8.884;2023-11-22T13:55:06;97100;;;2;77.5
68891;BME280;55932;48.702;8.884;2023-11-22T13:57:37;97090;;;2;77.5
68891;BME280;55932;48.702;8.884;2023-11-22T14:00:08;97110;;;2;78
68891;BME280;55932;48.702;8.884;2023-11-22T14:02:47;97110;;;2;78
68891;BME280;55932;48.702;8.884;2023-11-22T14:07:24;97120;;;2.1;77.5
68891;BME280;55932;48.702;8.884;2023-11-22T14:14:56;97120;;;1.9;77.5
68891;BME280;55932;48.702;8.884;2023-11-22T14:17:27;97130;;;1.9;77.5
68891;BME280;55932;48.702;8.884;2023-11-22T14:22:29;97130;;;1.9;77.5
68891;BME280;55932;48.702;8.884;2023-11-22T14:24:59;97130;;;1.8;77.5
68891;BME280;55932;48.702;8.884;2023-11-22T14:30:01;97130;;;1.8;78
68891;BME280;55932;48.702;8.884;2023-11-22T14:32:31;97130;;;1.8;78
68891;BME280;55932;48.702;8.884;2023-11-22T14:35:03;97140;;;1.8;78
68891;BME280;55932;48.702;8.884;2023-11-22T14:42:35;97150;;;1.8;77
68891;BME280;55932;48.702;8.884;2023-11-22T14:47:37;97160;;;1.6;77.5
68891;BME280;55932;48.702;8.884;2023-11-22T14:50:07;97150;;;1.6;77.5
68891;BME280;55932;48.702;8.884;2023-11-22T14:55:14;97130;;;1.6;77.5
68891;BME280;55932;48.702;8.884;2023-11-22T14:57:46;97120;;;1.5;78
68891;BME280;55932;48.702;8.884;2023-11-22T15:00:17;97130;;;1.6;78
68891;BME280;55932;48.702;8.884;2023-11-22T15:02:48;97130;;;1.6;78
68891;BME280;55932;48.702;8.884;2023-11-22T15:05:18;97130;;;1.7;78
68891;BME280;55932;48.702;8.884;2023-11-22T15:07:51;97130;;;1.8;77.5
68891;BME280;55932;48.702;8.884;2023-11-22T15:10:27;97140;;;1.7;77.5
68891;BME280;55932;48.702;8.884;2023-11-22T15:17:53;97120;;;1.5;78
68891;BME280;55932;48.702;8.884;2023-11-22T15:20:45;97130;;;1.5;78
68891;BME280;55932;48.702;8.884;2023-11-22T15:23:01;97140;;;1.5;78.5
68891;BME280;55932;48.702;8.884;2023-11-22T15:25:31;97140;;;1.5;78
68891;BME280;55932;48.702;8.884;2023-11-22T15:28:01;97140;;;1.6;78
68891;BME280;55932;48.702;8.884;2023-11-22T15:30:31;97140;;;1.8;77.5
68891;BME280;55932;48.702;8.884;2023-11-22T15:33:01;97150;;;1.8;77.5
68891;BME280;55932;48.702;8.884;2023-11-22T15:35:38;97150;;;1.6;77.5
68891;BME280;55932;48.702;8.884;2023-11-22T15:38:01;97150;;;1.5;78
68891;BME280;55932;48.702;8.884;2023-11-22T15:40:38;97150;;;1.5;78
68891;BME280;55932;48.702;8.884;2023-11-22T15:48:02;97160;;;1.4;78
68891;BME280;55932;48.702;8.884;2023-11-22T15:50:33;97150;;;1.5;78
68891;BME280;55932;48.702;8.884;2023-11-22T15:53:03;97160;;;1.6;77.5
68891;BME280;55932;48.702;8.884;2023-11-22T15:55:39;97170;;;1.5;77.5
68891;BME280;55932;48.702;8.884;2023-11-22T15:57:57;97170;;;1.4;78
68891;BME280;55932;48.702;8.884;2023-11-22T16:00:28;97160;;;1.4;78
68891;BME280;55932;48.702;8.884;2023-11-22T16:02:59;97170;;;1.4;78
68891;BME280;55932;48.702;8.884;2023-11-22T16:05:36;97160;;;1.4;77.5
68891;BME280;55932;48.702;8.884;2023-11-22T16:10:32;97160;;;1.3;78
68891;BME280;55932;48.702;8.884;2023-11-22T16:13:03;97180;;;1.3;78
68891;BME280;55932;48.702;8.884;2023-11-22T16:15:34;97180;;;1.4;78
68891;BME280;55932;48.702;8.884;2023-11-22T16:18:05;97190;;;1.4;78
68891;BME280;55932;48.702;8.884;2023-11-22T16:20:36;97190;;;1.4;78
68891;BME280;55932;48.702;8.884;2023-11-22T16:23:07;97190;;;1.4;77.5
68891;BME280;55932;48.702;8.884;2023-11-22T16:25:38;97180;;;1.4;78
68891;BME280;55932;48.702;8.884;2023-11-22T16:28:08;97170;;;1.3;78
68891;BME280;55932;48.702;8.884;2023-11-22T16:30:40;97170;;;1.4;78
68891;BME280;55932;48.702;8.884;2023-11-22T16:33:11;97180;;;1.4;77.5
68891;BME280;55932;48.702;8.884;2023-11-22T16:35:48;97180;;;1.3;78
68891;BME280;55932;48.702;8.884;2023-11-22T16:40:43;97200;;;1.5;77.5
68891;BME280;55932;48.702;8.884;2023-11-22T16:43:17;97200;;;1.5;77.5
68891;BME280;55932;48.702;8.884;2023-11-22T16:45:46;97210;;;1.4;77.5
68891;BME280;55932;48.702;8.884;2023-11-22T16:48:16;97230;;;1.3;78
68891;BME280;55932;48.702;8.884;2023-11-22T16:50:49;97230;;;1.4;78
68891;BME280;55932;48.702;8.884;2023-11-22T16:53:18;97230;;;1.4;78
68891;BME280;55932;48.702;8.884;2023-11-22T16:55:49;97230;;;1.4;78
68891;BME280;55932;48.702;8.884;2023-11-22T16:58:20;97220;;;1.5;78
68891;BME280;55932;48.702;8.884;2023-11-22T17:00:51;97230;;;1.5;78
68891;BME280;55932;48.702;8.884;2023-11-22T17:08:24;97220;;;1.5;77.5
68891;BME280;55932;48.702;8.884;2023-11-22T17:10:55;97210;;;1.5;77.5
68891;BME280;55932;48.702;8.884;2023-11-22T17:13:32;97220;;;1.5;77.5
68891;BME280;55932;48.702;8.884;2023-11-22T17:16:03;97220;;;1.6;77.5
68891;BME280;55932;48.702;8.884;2023-11-22T17:18:33;97220;;;1.3;78
68891;BME280;55932;48.702;8.884;2023-11-22T17:21:03;97220;;;1.3;78
68891;BME280;55932;48.702;8.884;2023-11-22T17:23:33;97230;;;1.3;77.5
68891;BME280;55932;48.702;8.884;2023-11-22T17:26:03;97230;;;1.3;78
68891;BME280;55932;48.702;8.884;2023-11-22T17:28:33;97240;;;1.3;78
68891;BME280;55932;48.702;8.884;2023-11-22T17:31:10;97250;;;1.3;77.5
68891;BME280;55932;48.702;8.884;2023-11-22T17:33:40;97250;;;1.3;78
68891;BME280;55932;48.702;8.884;2023-11-22T17:36:04;97250;;;1.3;78
68891;BME280;55932;48.702;8.884;2023-11-22T17:38:34;97240;;;1.3;78
68891;BME280;55932;48.702;8.884;2023-11-22T17:43:35;97260;;;1.4;78
68891;BME280;55932;48.702;8.884;2023-11-22T17:48:30;97280;;;1.3;78
68891;BME280;55932;48.702;8.884;2023-11-22T17:51:01;97280;;;1.3;78
68891;BME280;55932;48.702;8.884;2023-11-22T17:53:32;97290;;;1.3;78
68891;BME280;55932;48.702;8.884;2023-11-22T18:01:05;97280;;;1.1;78
68891;BME280;55932;48.702;8.884;2023-11-22T18:06:13;97280;;;1.3;77.5
68891;BME280;55932;48.702;8.884;2023-11-22T18:08:44;97280;;;1.3;77.5
68891;BME280;55932;48.702;8.884;2023-11-22T18:13:37;97300;;;1.1;78
68891;BME280;55932;48.702;8.884;2023-11-22T18:16:09;97290;;;1.1;78
68891;BME280;55932;48.702;8.884;2023-11-22T18:18:39;97280;;;1.1;78
68891;BME280;55932;48.702;8.884;2023-11-22T18:21:17;97280;;;1.1;78
68891;BME280;55932;48.702;8.884;2023-11-22T18:23:48;97280;;;1.1;78
68891;BME280;55932;48.702;8.884;2023-11-22T18:26:12;97280;;;1.1;78
68891;BME280;55932;48.702;8.884;2023-11-22T18:28:43;97270;;;1;78
68891;BME280;55932;48.702;8.884;2023-11-22T18:31:14;97270;;;1.1;78
68891;BME280;55932;48.702;8.884;2023-11-22T18:33:45;97270;;;1;78
68891;BME280;55932;48.702;8.884;2023-11-22T18:36:16;97270;;;1.1;78
68891;BME280;55932;48.702;8.884;2023-11-22T18:38:39;97270;;;1.1;78